Wyndham Hills, Pennsylvania
Current Conditions -  °F | °C
As of 6:53 AM on Saturday 01 Nov 2014 (Local Time) from KTHV Reporting Station
Overcast Overcast  
Wind Chill: 42°   Ceiling: 2500
Heat Index: 45°   Visibility: 10mi
Dew Point: 41°   Wind: 6mph
Humidity: 86%   Direction: 330°NNW
Pressure: 29.83"   Gusts: NA
Location:  39.9503°N, 76.7105°W
Report Text: KTHV 011053Z AUTO 33005KT 10SM BKN025 OVC033 07/05 A2983 RMK AO2 RAE45 SLP104 P0001 T00720050
Loading
Personal Weather Stations






























Interactive Weather Map
Tropical Storm Tracking
New forecast layout! Learn more

10-Day Weather Forecast

Advertisements
Track Severe Weather on mobile